Vremea acum in Mioveni - Romania

Vrei sa afli care e starea vremii acum in Arges - Romania? Dorim sa iti furnizam starea vremii pentru Arges - Romania. Starea vremii Arges - Romania pentru astazi.

Vremea acum in Mioveni

Temperatura: 13 °C

Este: Ceata
Se simte ca: 12.5 °C
Innorat: 52 %
Precipitatii: 100 %
Presiune atmosferica: 1014 hPa
Umiditate: 95%
Vizibilitate: 2 km
Vantul bate din E cu 7.9 km/h

Evolutia vremii in Mioveni pe ore

Ora: 05:00
Ceata
Temperatura: 12.7°C
Sansa de precipitatii: 100%
Ora Descriere Temp Se simte Precipitatii Umiditate Vant
00:00Ploi usoare13.8°13.4°100%90%SSE 9 KM/H
01:00Ploi usoare14°14.5°100%94%W 4.3 KM/H
02:00Ploi usoare13.9°13.4°100%95%NNW 9.4 KM/H
03:00Ceata13.9°13.3°65%95%N 9.4 KM/H
04:00Ceata13.3°12.8°100%95%NNE 8.3 KM/H
05:00Ceata12.7°12.5°100%95%NE 6.8 KM/H
06:00Ceata13°12.5°88%95%E 7.9 KM/H
07:00Ploi usoare13.9°13.2°100%95%E 10.8 KM/H
08:00Patchy rain nearby14.4°13.3°81%93%E 15.5 KM/H
09:00Ploi usoare14°12.7°100%93%E 16.6 KM/H
10:00Burniță ușoară13.7°12.4°100%93%E 15.8 KM/H
11:00Burniță ușoară13.7°12.5°100%93%E 14.8 KM/H
12:00Burniță ușoară13.4°12.6°100%95%E 11.2 KM/H
13:00Burniță ușoară13.7°13.1°100%95%E 9.4 KM/H
14:00Burniță ușoară14.2°13.8°100%92%ENE 9 KM/H
15:00Ploi usoare14.3°14.1°100%92%ENE 7.9 KM/H
16:00Burniță ușoară14.1°14.3°100%93%ENE 5.8 KM/H
17:00Burniță ușoară14°14.5°100%93%ENE 4.3 KM/H
18:00Burniță ușoară13.9°14.7°100%94%NE 3.2 KM/H
19:00Burniță ușoară13.6°14.3°100%96%NNE 3.2 KM/H
20:00Burniță ușoară13.2°14°100%97%N 3.2 KM/H
21:00Burniță ușoară12.9°13.5°100%97%NNW 3.6 KM/H
22:00Burniță ușoară12.8°13.4°100%97%NW 3.6 KM/H
23:00Burniță ușoară12.8°13.5°100%97%NW 3.2 KM/H




tutorials